Terminal Aerodrome Forecast
Issued by NWS Cleveland, OH

Home | Current Version | Previous Version | Text Only | Print | Product List | Glossary Off
Versions: 1 2 3 4 5 6 7 8 9 10 11 12 13 14 15 16 17 18 19 20 21 22

000
FTUS41 KCLE 211900 AAA
TAFMFD
TAF AMD
KMFD 211901Z 2119/2218 22006KT P6SM FEW035
     FM220000 17007KT P6SM SCT200
     FM221100 19008KT P6SM BKN040 OVC080 PROB30 2212/2215 6SM -FZRA
      OVC025
     FM221500 20012KT 5SM -RA BR BKN020 OVC050=

USA.gov is the U.S. government's official web portal to all federal, state and local government web resources and services.